sensor_id;sensor_type;location;lat;lon;timestamp;pressure;altitude;pressure_sealevel;temperature
69186;BMP280;56298;49.246;9.410;2023-03-01T00:00:10;100355.06;;;-1.27
69186;BMP280;56298;49.246;9.410;2023-03-01T00:02:35;100363.38;;;-1.29
69186;BMP280;56298;49.246;9.410;2023-03-01T00:05:01;100363.06;;;-1.33
69186;BMP280;56298;49.246;9.410;2023-03-01T00:07:27;100363.63;;;-1.30
69186;BMP280;56298;49.246;9.410;2023-03-01T00:09:52;100361.19;;;-1.32
69186;BMP280;56298;49.246;9.410;2023-03-01T00:12:17;100367.06;;;-1.35
69186;BMP280;56298;49.246;9.410;2023-03-01T00:14:42;100367.16;;;-1.30
69186;BMP280;56298;49.246;9.410;2023-03-01T00:17:08;100359.31;;;-1.32
69186;BMP280;56298;49.246;9.410;2023-03-01T00:19:33;100368.22;;;-1.31
69186;BMP280;56298;49.246;9.410;2023-03-01T00:21:58;100367.28;;;-1.37
69186;BMP280;56298;49.246;9.410;2023-03-01T00:24:24;100367.97;;;-1.29
69186;BMP280;56298;49.246;9.410;2023-03-01T00:26:53;100362.25;;;-1.33
69186;BMP280;56298;49.246;9.410;2023-03-01T00:29:20;100368.69;;;-1.34
69186;BMP280;56298;49.246;9.410;2023-03-01T00:31:45;100361.22;;;-1.15
69186;BMP280;56298;49.246;9.410;2023-03-01T00:34:11;100371.56;;;-1.07
69186;BMP280;56298;49.246;9.410;2023-03-01T00:36:36;100367.31;;;-1.02
69186;BMP280;56298;49.246;9.410;2023-03-01T00:39:04;100372.13;;;-1.04
69186;BMP280;56298;49.246;9.410;2023-03-01T00:41:30;100373.03;;;-0.99
69186;BMP280;56298;49.246;9.410;2023-03-01T00:43:55;100368.47;;;-0.98
69186;BMP280;56298;49.246;9.410;2023-03-01T00:46:23;100378.16;;;-1.14
69186;BMP280;56298;49.246;9.410;2023-03-01T00:48:49;100376.53;;;-1.15
69186;BMP280;56298;49.246;9.410;2023-03-01T00:51:28;100383.53;;;-1.14
69186;BMP280;56298;49.246;9.410;2023-03-01T00:53:55;100382.97;;;-1.16
69186;BMP280;56298;49.246;9.410;2023-03-01T00:56:21;100386.69;;;-1.35
69186;BMP280;56298;49.246;9.410;2023-03-01T00:58:47;100381.66;;;-1.31
69186;BMP280;56298;49.246;9.410;2023-03-01T01:01:14;100375.00;;;-1.40
69186;BMP280;56298;49.246;9.410;2023-03-01T01:03:58;100370.19;;;-1.38
69186;BMP280;56298;49.246;9.410;2023-03-01T01:06:27;100364.59;;;-1.37
69186;BMP280;56298;49.246;9.410;2023-03-01T01:08:53;100360.69;;;-1.29
69186;BMP280;56298;49.246;9.410;2023-03-01T01:11:19;100352.72;;;-1.24
69186;BMP280;56298;49.246;9.410;2023-03-01T01:13:46;100354.84;;;-1.26
69186;BMP280;56298;49.246;9.410;2023-03-01T01:16:12;100351.75;;;-1.17
69186;BMP280;56298;49.246;9.410;2023-03-01T01:18:38;100357.28;;;-1.24
69186;BMP280;56298;49.246;9.410;2023-03-01T01:21:14;100348.47;;;-1.20
69186;BMP280;56298;49.246;9.410;2023-03-01T01:23:41;100352.91;;;-1.42
69186;BMP280;56298;49.246;9.410;2023-03-01T01:26:10;100347.66;;;-1.49
69186;BMP280;56298;49.246;9.410;2023-03-01T01:28:35;100344.59;;;-1.41
69186;BMP280;56298;49.246;9.410;2023-03-01T01:31:01;100344.28;;;-1.45
69186;BMP280;56298;49.246;9.410;2023-03-01T01:33:26;100340.91;;;-1.52
69186;BMP280;56298;49.246;9.410;2023-03-01T01:35:52;100328.03;;;-1.50
69186;BMP280;56298;49.246;9.410;2023-03-01T01:38:17;100329.50;;;-1.59
69186;BMP280;56298;49.246;9.410;2023-03-01T01:40:44;100328.28;;;-1.51
69186;BMP280;56298;49.246;9.410;2023-03-01T01:43:24;100318.59;;;-1.52
69186;BMP280;56298;49.246;9.410;2023-03-01T01:45:51;100322.06;;;-1.52
69186;BMP280;56298;49.246;9.410;2023-03-01T01:48:23;100318.50;;;-1.58
69186;BMP280;56298;49.246;9.410;2023-03-01T01:50:55;100313.78;;;-1.50
69186;BMP280;56298;49.246;9.410;2023-03-01T01:53:23;100305.78;;;-1.62
69186;BMP280;56298;49.246;9.410;2023-03-01T01:55:54;100304.94;;;-1.63
69186;BMP280;56298;49.246;9.410;2023-03-01T01:58:24;100295.00;;;-1.62
69186;BMP280;56298;49.246;9.410;2023-03-01T02:00:50;100290.63;;;-1.68
69186;BMP280;56298;49.246;9.410;2023-03-01T02:03:20;100288.72;;;-1.68
69186;BMP280;56298;49.246;9.410;2023-03-01T02:05:54;100283.94;;;-1.66
69186;BMP280;56298;49.246;9.410;2023-03-01T02:08:23;100276.94;;;-1.67
69186;BMP280;56298;49.246;9.410;2023-03-01T02:10:51;100284.72;;;-1.65
69186;BMP280;56298;49.246;9.410;2023-03-01T02:13:17;100280.13;;;-1.53
69186;BMP280;56298;49.246;9.410;2023-03-01T02:15:42;100275.25;;;-1.39
69186;BMP280;56298;49.246;9.410;2023-03-01T02:18:10;100284.59;;;-1.41
69186;BMP280;56298;49.246;9.410;2023-03-01T02:23:30;100274.19;;;-1.55
69186;BMP280;56298;49.246;9.410;2023-03-01T02:26:01;100270.19;;;-1.69
69186;BMP280;56298;49.246;9.410;2023-03-01T02:28:37;100271.78;;;-1.68
69186;BMP280;56298;49.246;9.410;2023-03-01T02:31:05;100270.31;;;-1.76
69186;BMP280;56298;49.246;9.410;2023-03-01T02:33:51;100259.66;;;-1.54
69186;BMP280;56298;49.246;9.410;2023-03-01T02:36:19;100265.97;;;-1.77
69186;BMP280;56298;49.246;9.410;2023-03-01T02:38:45;100264.63;;;-1.63
69186;BMP280;56298;49.246;9.410;2023-03-01T02:41:13;100258.34;;;-1.68
69186;BMP280;56298;49.246;9.410;2023-03-01T02:43:40;100253.06;;;-1.63
69186;BMP280;56298;49.246;9.410;2023-03-01T02:46:12;100249.06;;;-1.78
69186;BMP280;56298;49.246;9.410;2023-03-01T02:48:48;100244.19;;;-1.93
69186;BMP280;56298;49.246;9.410;2023-03-01T02:51:34;100249.81;;;-1.94
69186;BMP280;56298;49.246;9.410;2023-03-01T02:56:35;100245.44;;;-1.84
69186;BMP280;56298;49.246;9.410;2023-03-01T02:59:00;100237.72;;;-1.80
69186;BMP280;56298;49.246;9.410;2023-03-01T03:01:27;100238.78;;;-1.81
69186;BMP280;56298;49.246;9.410;2023-03-01T03:04:10;100240.09;;;-1.84
69186;BMP280;56298;49.246;9.410;2023-03-01T03:06:35;100234.38;;;-1.87
69186;BMP280;56298;49.246;9.410;2023-03-01T03:09:02;100238.56;;;-1.91
69186;BMP280;56298;49.246;9.410;2023-03-01T03:11:28;100231.56;;;-1.92
69186;BMP280;56298;49.246;9.410;2023-03-01T03:13:54;100241.66;;;-2.00
69186;BMP280;56298;49.246;9.410;2023-03-01T03:16:19;100234.06;;;-2.03
69186;BMP280;56298;49.246;9.410;2023-03-01T03:18:45;100224.97;;;-2.02
69186;BMP280;56298;49.246;9.410;2023-03-01T03:21:11;100234.19;;;-1.98
69186;BMP280;56298;49.246;9.410;2023-03-01T03:23:37;100236.28;;;-2.00
69186;BMP280;56298;49.246;9.410;2023-03-01T03:26:04;100234.31;;;-2.04
69186;BMP280;56298;49.246;9.410;2023-03-01T03:28:30;100232.69;;;-2.05
69186;BMP280;56298;49.246;9.410;2023-03-01T03:30:56;100228.13;;;-2.05
69186;BMP280;56298;49.246;9.410;2023-03-01T03:33:21;100222.50;;;-2.03
69186;BMP280;56298;49.246;9.410;2023-03-01T03:35:48;100216.16;;;-2.14
69186;BMP280;56298;49.246;9.410;2023-03-01T03:38:16;100214.13;;;-2.07
69186;BMP280;56298;49.246;9.410;2023-03-01T03:40:45;100212.97;;;-2.11
69186;BMP280;56298;49.246;9.410;2023-03-01T03:43:13;100209.63;;;-2.18
69186;BMP280;56298;49.246;9.410;2023-03-01T03:45:38;100204.09;;;-2.12
69186;BMP280;56298;49.246;9.410;2023-03-01T03:48:05;100201.41;;;-2.12
69186;BMP280;56298;49.246;9.410;2023-03-01T03:50:31;100210.84;;;-2.09
69186;BMP280;56298;49.246;9.410;2023-03-01T03:53:00;100201.09;;;-2.15
69186;BMP280;56298;49.246;9.410;2023-03-01T03:55:25;100192.78;;;-2.14
69186;BMP280;56298;49.246;9.410;2023-03-01T03:57:57;100196.19;;;-2.18
69186;BMP280;56298;49.246;9.410;2023-03-01T04:00:22;100204.72;;;-2.21
69186;BMP280;56298;49.246;9.410;2023-03-01T04:02:50;100193.25;;;-2.17
69186;BMP280;56298;49.246;9.410;2023-03-01T04:05:17;100195.03;;;-2.23
69186;BMP280;56298;49.246;9.410;2023-03-01T04:07:43;100189.47;;;-2.33
69186;BMP280;56298;49.246;9.410;2023-03-01T04:10:11;100195.28;;;-2.36
69186;BMP280;56298;49.246;9.410;2023-03-01T04:12:37;100192.88;;;-2.38
69186;BMP280;56298;49.246;9.410;2023-03-01T04:15:04;100195.44;;;-2.43
69186;BMP280;56298;49.246;9.410;2023-03-01T04:17:38;100198.03;;;-2.48
69186;BMP280;56298;49.246;9.410;2023-03-01T04:20:05;100198.72;;;-2.41
69186;BMP280;56298;49.246;9.410;2023-03-01T04:22:30;100197.56;;;-2.45
69186;BMP280;56298;49.246;9.410;2023-03-01T04:24:57;100195.84;;;-2.51
69186;BMP280;56298;49.246;9.410;2023-03-01T04:27:22;100194.31;;;-2.47
69186;BMP280;56298;49.246;9.410;2023-03-01T04:29:47;100194.69;;;-2.55
69186;BMP280;56298;49.246;9.410;2023-03-01T04:32:12;100198.03;;;-2.48
69186;BMP280;56298;49.246;9.410;2023-03-01T04:34:41;100195.94;;;-2.46
69186;BMP280;56298;49.246;9.410;2023-03-01T04:37:06;100194.41;;;-2.42
69186;BMP280;56298;49.246;9.410;2023-03-01T04:39:31;100197.78;;;-2.34
69186;BMP280;56298;49.246;9.410;2023-03-01T04:41:57;100196.63;;;-2.51
69186;BMP280;56298;49.246;9.410;2023-03-01T04:44:22;100200.28;;;-2.57
69186;BMP280;56298;49.246;9.410;2023-03-01T04:46:49;100198.91;;;-2.59
69186;BMP280;56298;49.246;9.410;2023-03-01T04:49:15;100193.06;;;-2.56
69186;BMP280;56298;49.246;9.410;2023-03-01T04:51:41;100197.84;;;-2.58
69186;BMP280;56298;49.246;9.410;2023-03-01T04:54:06;100201.53;;;-2.47
69186;BMP280;56298;49.246;9.410;2023-03-01T04:56:34;100201.72;;;-2.37
69186;BMP280;56298;49.246;9.410;2023-03-01T04:58:59;100200.16;;;-2.50
69186;BMP280;56298;49.246;9.410;2023-03-01T05:01:25;100207.28;;;-2.56
69186;BMP280;56298;49.246;9.410;2023-03-01T05:03:51;100207.34;;;-2.39
69186;BMP280;56298;49.246;9.410;2023-03-01T05:06:17;100197.97;;;-2.36
69186;BMP280;56298;49.246;9.410;2023-03-01T05:08:43;100201.72;;;-2.37
69186;BMP280;56298;49.246;9.410;2023-03-01T05:11:09;100200.97;;;-2.50
69186;BMP280;56298;49.246;9.410;2023-03-01T05:13:36;100199.53;;;-2.40
69186;BMP280;56298;49.246;9.410;2023-03-01T05:16:02;100214.81;;;-2.29
69186;BMP280;56298;49.246;9.410;2023-03-01T05:18:30;100206.13;;;-2.19
69186;BMP280;56298;49.246;9.410;2023-03-01T05:21:03;100214.09;;;-2.36
69186;BMP280;56298;49.246;9.410;2023-03-01T05:23:29;100205.94;;;-2.41
69186;BMP280;56298;49.246;9.410;2023-03-01T05:25:57;100211.91;;;-2.39
69186;BMP280;56298;49.246;9.410;2023-03-01T05:28:23;100198.63;;;-2.46
69186;BMP280;56298;49.246;9.410;2023-03-01T05:30:48;100200.00;;;-2.43
69186;BMP280;56298;49.246;9.410;2023-03-01T05:33:16;100191.16;;;-2.56
69186;BMP280;56298;49.246;9.410;2023-03-01T05:35:43;100194.78;;;-2.50
69186;BMP280;56298;49.246;9.410;2023-03-01T05:38:10;100196.06;;;-2.53
69186;BMP280;56298;49.246;9.410;2023-03-01T05:40:39;100188.41;;;-2.61
69186;BMP280;56298;49.246;9.410;2023-03-01T05:43:04;100190.72;;;-2.53
69186;BMP280;56298;49.246;9.410;2023-03-01T05:45:30;100189.97;;;-2.48
69186;BMP280;56298;49.246;9.410;2023-03-01T05:47:57;100180.94;;;-2.59
69186;BMP280;56298;49.246;9.410;2023-03-01T05:50:25;100184.88;;;-2.50
69186;BMP280;56298;49.246;9.410;2023-03-01T05:52:56;100185.91;;;-2.51
69186;BMP280;56298;49.246;9.410;2023-03-01T05:55:22;100177.97;;;-2.57
69186;BMP280;56298;49.246;9.410;2023-03-01T05:57:47;100178.56;;;-2.55
69186;BMP280;56298;49.246;9.410;2023-03-01T06:00:15;100188.25;;;-2.54
69186;BMP280;56298;49.246;9.410;2023-03-01T06:02:40;100183.63;;;-2.59
69186;BMP280;56298;49.246;9.410;2023-03-01T06:05:08;100185.81;;;-2.56
69186;BMP280;56298;49.246;9.410;2023-03-01T06:07:34;100190.63;;;-2.58
69186;BMP280;56298;49.246;9.410;2023-03-01T06:10:00;100195.69;;;-2.44
69186;BMP280;56298;49.246;9.410;2023-03-01T06:12:25;100191.22;;;-2.39
69186;BMP280;56298;49.246;9.410;2023-03-01T06:14:50;100200.09;;;-2.26
69186;BMP280;56298;49.246;9.410;2023-03-01T06:17:15;100190.81;;;-2.18
69186;BMP280;56298;49.246;9.410;2023-03-01T06:19:41;100189.75;;;-2.17
69186;BMP280;56298;49.246;9.410;2023-03-01T06:22:06;100201.16;;;-2.10
69186;BMP280;56298;49.246;9.410;2023-03-01T06:24:32;100195.06;;;-2.05
69186;BMP280;56298;49.246;9.410;2023-03-01T06:26:58;100200.69;;;-2.07
69186;BMP280;56298;49.246;9.410;2023-03-01T06:29:23;100195.56;;;-2.08
69186;BMP280;56298;49.246;9.410;2023-03-01T06:31:48;100190.78;;;-1.89
69186;BMP280;56298;49.246;9.410;2023-03-01T06:34:14;100190.38;;;-1.47
69186;BMP280;56298;49.246;9.410;2023-03-01T06:36:40;100185.16;;;-1.19
69186;BMP280;56298;49.246;9.410;2023-03-01T06:39:06;100178.16;;;-1.20
69186;BMP280;56298;49.246;9.410;2023-03-01T06:41:32;100181.66;;;-0.97
69186;BMP280;56298;49.246;9.410;2023-03-01T06:43:58;100174.16;;;-0.95
69186;BMP280;56298;49.246;9.410;2023-03-01T06:46:23;100172.59;;;-0.41
69186;BMP280;56298;49.246;9.410;2023-03-01T06:48:49;100179.03;;;0.08
69186;BMP280;56298;49.246;9.410;2023-03-01T06:51:14;100177.16;;;0.13
69186;BMP280;56298;49.246;9.410;2023-03-01T06:53:39;100179.91;;;0.19
69186;BMP280;56298;49.246;9.410;2023-03-01T06:56:04;100174.38;;;-0.30
69186;BMP280;56298;49.246;9.410;2023-03-01T06:58:30;100185.16;;;-0.30
69186;BMP280;56298;49.246;9.410;2023-03-01T07:00:55;100177.25;;;-0.36
69186;BMP280;56298;49.246;9.410;2023-03-01T07:03:20;100173.53;;;-0.30
69186;BMP280;56298;49.246;9.410;2023-03-01T07:05:48;100177.69;;;-0.17
69186;BMP280;56298;49.246;9.410;2023-03-01T07:08:14;100176.09;;;-0.18
69186;BMP280;56298;49.246;9.410;2023-03-01T07:10:40;100170.94;;;0.08
69186;BMP280;56298;49.246;9.410;2023-03-01T07:13:05;100179.22;;;0.01
69186;BMP280;56298;49.246;9.410;2023-03-01T07:15:32;100181.78;;;0.18
69186;BMP280;56298;49.246;9.410;2023-03-01T07:17:57;100176.16;;;0.20
69186;BMP280;56298;49.246;9.410;2023-03-01T07:20:23;100184.19;;;0.58
69186;BMP280;56298;49.246;9.410;2023-03-01T07:22:51;100176.25;;;0.78
69186;BMP280;56298;49.246;9.410;2023-03-01T07:25:16;100187.38;;;0.92
69186;BMP280;56298;49.246;9.410;2023-03-01T07:27:41;100169.53;;;0.86
69186;BMP280;56298;49.246;9.410;2023-03-01T07:30:07;100173.19;;;0.70
69186;BMP280;56298;49.246;9.410;2023-03-01T07:32:33;100163.56;;;0.89
69186;BMP280;56298;49.246;9.410;2023-03-01T07:34:58;100156.09;;;1.07
69186;BMP280;56298;49.246;9.410;2023-03-01T07:37:24;100155.09;;;1.29
69186;BMP280;56298;49.246;9.410;2023-03-01T07:39:49;100149.19;;;1.48
69186;BMP280;56298;49.246;9.410;2023-03-01T07:42:14;100143.00;;;1.63
69186;BMP280;56298;49.246;9.410;2023-03-01T07:44:39;100150.03;;;1.74
69186;BMP280;56298;49.246;9.410;2023-03-01T07:47:05;100153.78;;;1.57
69186;BMP280;56298;49.246;9.410;2023-03-01T07:49:30;100161.88;;;1.52
69186;BMP280;56298;49.246;9.410;2023-03-01T07:51:55;100151.38;;;1.61
69186;BMP280;56298;49.246;9.410;2023-03-01T07:54:21;100145.41;;;1.59
69186;BMP280;56298;49.246;9.410;2023-03-01T07:56:46;100148.94;;;1.65
69186;BMP280;56298;49.246;9.410;2023-03-01T07:59:12;100147.59;;;1.83
69186;BMP280;56298;49.246;9.410;2023-03-01T08:01:37;100141.09;;;1.63
69186;BMP280;56298;49.246;9.410;2023-03-01T08:04:02;100138.94;;;1.65
69186;BMP280;56298;49.246;9.410;2023-03-01T08:06:29;100136.25;;;1.81
69186;BMP280;56298;49.246;9.410;2023-03-01T08:08:55;100131.91;;;1.59
69186;BMP280;56298;49.246;9.410;2023-03-01T08:11:23;100145.72;;;1.89
69186;BMP280;56298;49.246;9.410;2023-03-01T08:13:48;100137.88;;;2.03
69186;BMP280;56298;49.246;9.410;2023-03-01T08:16:15;100139.75;;;1.66
69186;BMP280;56298;49.246;9.410;2023-03-01T08:18:41;100142.44;;;2.02
69186;BMP280;56298;49.246;9.410;2023-03-01T08:21:11;100150.28;;;2.19
69186;BMP280;56298;49.246;9.410;2023-03-01T08:23:37;100152.94;;;2.40
69186;BMP280;56298;49.246;9.410;2023-03-01T08:26:08;100138.56;;;2.60
69186;BMP280;56298;49.246;9.410;2023-03-01T08:28:35;100132.78;;;2.77
69186;BMP280;56298;49.246;9.410;2023-03-01T08:31:00;100135.19;;;2.89
69186;BMP280;56298;49.246;9.410;2023-03-01T08:33:26;100133.28;;;2.90
69186;BMP280;56298;49.246;9.410;2023-03-01T08:35:51;100133.53;;;2.94
69186;BMP280;56298;49.246;9.410;2023-03-01T08:38:17;100137.31;;;2.98
69186;BMP280;56298;49.246;9.410;2023-03-01T08:40:42;100130.38;;;2.71
69186;BMP280;56298;49.246;9.410;2023-03-01T08:43:07;100128.31;;;3.08
69186;BMP280;56298;49.246;9.410;2023-03-01T08:45:33;100133.19;;;3.05
69186;BMP280;56298;49.246;9.410;2023-03-01T08:47:58;100124.59;;;2.98
69186;BMP280;56298;49.246;9.410;2023-03-01T08:50:23;100112.84;;;3.13
69186;BMP280;56298;49.246;9.410;2023-03-01T08:52:49;100115.03;;;3.06
69186;BMP280;56298;49.246;9.410;2023-03-01T08:55:15;100103.47;;;3.35
69186;BMP280;56298;49.246;9.410;2023-03-01T08:57:42;100103.66;;;3.49
69186;BMP280;56298;49.246;9.410;2023-03-01T09:00:08;100111.78;;;3.84
69186;BMP280;56298;49.246;9.410;2023-03-01T09:02:33;100105.72;;;3.92
69186;BMP280;56298;49.246;9.410;2023-03-01T09:04:59;100111.97;;;3.93
69186;BMP280;56298;49.246;9.410;2023-03-01T09:07:26;100097.97;;;4.05
69186;BMP280;56298;49.246;9.410;2023-03-01T09:09:53;100106.75;;;3.72
69186;BMP280;56298;49.246;9.410;2023-03-01T09:12:19;100108.00;;;4.34
69186;BMP280;56298;49.246;9.410;2023-03-01T09:14:44;100113.47;;;4.29
69186;BMP280;56298;49.246;9.410;2023-03-01T09:17:09;100108.69;;;4.45
69186;BMP280;56298;49.246;9.410;2023-03-01T09:19:34;100106.16;;;4.73
69186;BMP280;56298;49.246;9.410;2023-03-01T09:22:00;100093.97;;;4.89
69186;BMP280;56298;49.246;9.410;2023-03-01T09:24:25;100097.66;;;4.99
69186;BMP280;56298;49.246;9.410;2023-03-01T09:26:53;100091.47;;;4.74
69186;BMP280;56298;49.246;9.410;2023-03-01T09:29:19;100083.19;;;5.03
69186;BMP280;56298;49.246;9.410;2023-03-01T09:31:44;100075.00;;;5.23
69186;BMP280;56298;49.246;9.410;2023-03-01T09:34:09;100076.56;;;5.43
69186;BMP280;56298;49.246;9.410;2023-03-01T09:36:35;100074.38;;;5.12
69186;BMP280;56298;49.246;9.410;2023-03-01T09:39:00;100071.75;;;5.40
69186;BMP280;56298;49.246;9.410;2023-03-01T09:42:05;100068.00;;;5.69
69186;BMP280;56298;49.246;9.410;2023-03-01T09:44:36;100057.19;;;5.78
69186;BMP280;56298;49.246;9.410;2023-03-01T09:47:03;100050.44;;;6.03
69186;BMP280;56298;49.246;9.410;2023-03-01T09:49:31;100057.72;;;6.08
69186;BMP280;56298;49.246;9.410;2023-03-01T09:52:11;100052.19;;;6.13
69186;BMP280;56298;49.246;9.410;2023-03-01T09:54:39;100047.13;;;6.06
69186;BMP280;56298;49.246;9.410;2023-03-01T10:00:22;100053.19;;;6.17
69186;BMP280;56298;49.246;9.410;2023-03-01T10:05:49;100044.00;;;5.99
69186;BMP280;56298;49.246;9.410;2023-03-01T10:08:29;100042.34;;;6.40
69186;BMP280;56298;49.246;9.410;2023-03-01T10:10:57;100042.97;;;6.37
69186;BMP280;56298;49.246;9.410;2023-03-01T10:13:33;100029.81;;;6.53
69186;BMP280;56298;49.246;9.410;2023-03-01T10:16:05;100029.56;;;6.86
69186;BMP280;56298;49.246;9.410;2023-03-01T10:18:34;100030.16;;;6.97
69186;BMP280;56298;49.246;9.410;2023-03-01T10:21:08;100017.13;;;7.17
69186;BMP280;56298;49.246;9.410;2023-03-01T10:23:36;100021.13;;;7.51
69186;BMP280;56298;49.246;9.410;2023-03-01T10:26:33;100013.88;;;7.15
69186;BMP280;56298;49.246;9.410;2023-03-01T10:29:09;100008.69;;;7.04
69186;BMP280;56298;49.246;9.410;2023-03-01T10:31:47;100004.47;;;7.21
69186;BMP280;56298;49.246;9.410;2023-03-01T10:34:19;100001.28;;;7.28
69186;BMP280;56298;49.246;9.410;2023-03-01T10:36:51;100005.53;;;6.88
69186;BMP280;56298;49.246;9.410;2023-03-01T10:39:20;100001.59;;;6.94
69186;BMP280;56298;49.246;9.410;2023-03-01T10:42:05;99996.16;;;7.03
69186;BMP280;56298;49.246;9.410;2023-03-01T10:44:43;99991.41;;;6.86
69186;BMP280;56298;49.246;9.410;2023-03-01T10:47:14;99987.56;;;7.10
69186;BMP280;56298;49.246;9.410;2023-03-01T10:52:19;99991.53;;;7.04
69186;BMP280;56298;49.246;9.410;2023-03-01T10:54:52;99986.00;;;7.27
69186;BMP280;56298;49.246;9.410;2023-03-01T10:57:28;99980.88;;;7.57
69186;BMP280;56298;49.246;9.410;2023-03-01T11:00:14;99979.13;;;7.78
69186;BMP280;56298;49.246;9.410;2023-03-01T11:02:42;99979.06;;;7.52
69186;BMP280;56298;49.246;9.410;2023-03-01T11:07:55;99967.84;;;7.53
69186;BMP280;56298;49.246;9.410;2023-03-01T11:10:27;99956.00;;;7.58
69186;BMP280;56298;49.246;9.410;2023-03-01T11:12:53;99955.88;;;7.81
69186;BMP280;56298;49.246;9.410;2023-03-01T11:15:28;99949.94;;;7.97
69186;BMP280;56298;49.246;9.410;2023-03-01T11:17:56;99951.84;;;7.70
69186;BMP280;56298;49.246;9.410;2023-03-01T11:20:25;99949.59;;;7.72
69186;BMP280;56298;49.246;9.410;2023-03-01T11:23:12;99943.09;;;7.50
69186;BMP280;56298;49.246;9.410;2023-03-01T11:25:41;99937.72;;;7.76
69186;BMP280;56298;49.246;9.410;2023-03-01T11:28:16;99934.22;;;8.11
69186;BMP280;56298;49.246;9.410;2023-03-01T11:33:38;99939.66;;;7.93
69186;BMP280;56298;49.246;9.410;2023-03-01T11:38:49;99927.66;;;7.36
69186;BMP280;56298;49.246;9.410;2023-03-01T11:41:18;99932.13;;;7.32
69186;BMP280;56298;49.246;9.410;2023-03-01T11:43:58;99919.00;;;7.43
69186;BMP280;56298;49.246;9.410;2023-03-01T11:56:59;99897.06;;;7.66
69186;BMP280;56298;49.246;9.410;2023-03-01T11:59:53;99888.75;;;7.98
69186;BMP280;56298;49.246;9.410;2023-03-01T12:02:35;99889.22;;;8.35
69186;BMP280;56298;49.246;9.410;2023-03-01T12:08:02;99883.25;;;8.33
69186;BMP280;56298;49.246;9.410;2023-03-01T12:21:38;99859.66;;;8.11
69186;BMP280;56298;49.246;9.410;2023-03-01T12:27:15;99848.06;;;8.31
69186;BMP280;56298;49.246;9.410;2023-03-01T12:30:02;99838.09;;;8.35
69186;BMP280;56298;49.246;9.410;2023-03-01T12:33:02;99833.94;;;8.29
69186;BMP280;56298;49.246;9.410;2023-03-01T12:35:54;99831.03;;;8.26
69186;BMP280;56298;49.246;9.410;2023-03-01T12:38:41;99826.25;;;8.14
69186;BMP280;56298;49.246;9.410;2023-03-01T12:44:04;99818.94;;;8.44
69186;BMP280;56298;49.246;9.410;2023-03-01T12:49:10;99814.66;;;8.26
69186;BMP280;56298;49.246;9.410;2023-03-01T12:51:39;99811.56;;;8.45
69186;BMP280;56298;49.246;9.410;2023-03-01T12:54:20;99809.88;;;8.61
69186;BMP280;56298;49.246;9.410;2023-03-01T12:56:50;99809.88;;;8.61
69186;BMP280;56298;49.246;9.410;2023-03-01T12:59:36;99803.41;;;8.10
69186;BMP280;56298;49.246;9.410;2023-03-01T13:02:09;99803.13;;;7.93
69186;BMP280;56298;49.246;9.410;2023-03-01T13:05:05;99790.94;;;7.91
69186;BMP280;56298;49.246;9.410;2023-03-01T13:10:34;99793.81;;;8.03
69186;BMP280;56298;49.246;9.410;2023-03-01T13:13:21;99788.50;;;7.89
69186;BMP280;56298;49.246;9.410;2023-03-01T13:15:47;99786.56;;;8.16
69186;BMP280;56298;49.246;9.410;2023-03-01T13:18:33;99782.00;;;8.29
69186;BMP280;56298;49.246;9.410;2023-03-01T13:21:00;99776.03;;;8.45
69186;BMP280;56298;49.246;9.410;2023-03-01T13:23:29;99772.84;;;8.25
69186;BMP280;56298;49.246;9.410;2023-03-01T13:31:06;99771.16;;;8.03
69186;BMP280;56298;49.246;9.410;2023-03-01T13:36:00;99776.47;;;7.90
69186;BMP280;56298;49.246;9.410;2023-03-01T13:41:06;99778.53;;;8.02
69186;BMP280;56298;49.246;9.410;2023-03-01T13:43:36;99775.16;;;8.14
69186;BMP280;56298;49.246;9.410;2023-03-01T13:46:09;99770.28;;;8.20
69186;BMP280;56298;49.246;9.410;2023-03-01T13:48:36;99763.69;;;8.21
69186;BMP280;56298;49.246;9.410;2023-03-01T13:51:05;99767.16;;;7.91
69186;BMP280;56298;49.246;9.410;2023-03-01T13:53:40;99754.81;;;7.68
69186;BMP280;56298;49.246;9.410;2023-03-01T13:56:13;99771.03;;;7.64
69186;BMP280;56298;49.246;9.410;2023-03-01T13:58:55;99756.13;;;7.70
69186;BMP280;56298;49.246;9.410;2023-03-01T14:03:49;99749.50;;;7.62
69186;BMP280;56298;49.246;9.410;2023-03-01T14:06:16;99748.25;;;7.60
69186;BMP280;56298;49.246;9.410;2023-03-01T14:08:46;99745.19;;;7.35
69186;BMP280;56298;49.246;9.410;2023-03-01T14:11:35;99744.72;;;7.33
69186;BMP280;56298;49.246;9.410;2023-03-01T14:14:32;99741.00;;;7.37
69186;BMP280;56298;49.246;9.410;2023-03-01T14:17:26;99744.22;;;7.39
69186;BMP280;56298;49.246;9.410;2023-03-01T14:19:59;99755.63;;;7.42
69186;BMP280;56298;49.246;9.410;2023-03-01T14:22:29;99730.09;;;7.37
69186;BMP280;56298;49.246;9.410;2023-03-01T14:25:00;99733.97;;;7.28
69186;BMP280;56298;49.246;9.410;2023-03-01T14:27:35;99737.31;;;7.33
69186;BMP280;56298;49.246;9.410;2023-03-01T14:30:11;99736.03;;;7.13
69186;BMP280;56298;49.246;9.410;2023-03-01T14:32:37;99724.50;;;7.25
69186;BMP280;56298;49.246;9.410;2023-03-01T14:35:03;99733.94;;;7.19
69186;BMP280;56298;49.246;9.410;2023-03-01T14:37:34;99742.94;;;7.28
69186;BMP280;56298;49.246;9.410;2023-03-01T14:40:03;99729.63;;;7.18
69186;BMP280;56298;49.246;9.410;2023-03-01T14:42:34;99735.22;;;7.21
69186;BMP280;56298;49.246;9.410;2023-03-01T14:45:00;99736.53;;;7.33
69186;BMP280;56298;49.246;9.410;2023-03-01T14:47:29;99738.09;;;7.16
69186;BMP280;56298;49.246;9.410;2023-03-01T14:52:37;99758.00;;;6.99
69186;BMP280;56298;49.246;9.410;2023-03-01T14:55:06;99758.25;;;6.89
69186;BMP280;56298;49.246;9.410;2023-03-01T14:57:32;99750.09;;;6.89
69186;BMP280;56298;49.246;9.410;2023-03-01T14:59:59;99760.53;;;6.95
69186;BMP280;56298;49.246;9.410;2023-03-01T15:02:29;99746.44;;;7.02
69186;BMP280;56298;49.246;9.410;2023-03-01T15:04:57;99748.50;;;6.96
69186;BMP280;56298;49.246;9.410;2023-03-01T15:07:27;99749.81;;;6.99
69186;BMP280;56298;49.246;9.410;2023-03-01T15:09:54;99749.28;;;6.88
69186;BMP280;56298;49.246;9.410;2023-03-01T15:14:55;99754.91;;;6.92
69186;BMP280;56298;49.246;9.410;2023-03-01T15:17:34;99750.41;;;6.87
69186;BMP280;56298;49.246;9.410;2023-03-01T15:20:01;99751.69;;;6.90
69186;BMP280;56298;49.246;9.410;2023-03-01T15:22:28;99758.44;;;6.92
69186;BMP280;56298;49.246;9.410;2023-03-01T15:24:54;99757.44;;;6.88
69186;BMP280;56298;49.246;9.410;2023-03-01T15:27:24;99753.16;;;6.96
69186;BMP280;56298;49.246;9.410;2023-03-01T15:29:54;99757.44;;;6.88
69186;BMP280;56298;49.246;9.410;2023-03-01T15:32:27;99755.72;;;6.92